Huvudsida
METAR-TAF:

METAR-TAF

Flygplatser :

Nyslotts flygplats

Nyslott, Finland

latitud: 61-57N, longitud: 028-57E, höjd: 95 m

Aktuellt väderrapport

Denna rapport gjordes för 43 minuter sedan, klockan 07:20 UTC
Vind 5 kt från sydväst, varierande mellan syd och väst/nordväst
Temperatur 4°C
Fuktighet 87%
Tryck 994 hPa
Sikt 10 km eller mer
Spridda moln på en höjd av 2900 ft

METAR: EFSA 230720Z AUTO 22005KT 170V290 9999 SCT029 04/02 Q0994

Tid: 11:03 (08:03 UTC)

Väderprognos

Denna rapport gjordes för 2 timmar och 29 minuter sedan, klockan 05:34 UTC
Prognos gäller från 23 kl. 06 UTC till 23 kl. 15 UTC
Vind 5 kt från sydväst
Sikt 10 km eller mer
Få moln på en höjd av 800 ft
Spridda moln på en höjd av 3500 ft
Temporärt
från 23 kl. 06 UTC till 23 kl. 09 UTC
Brutna moln på en höjd av 800 ft

TAF: EFSA 230534Z 2306/2315 22005KT 9999 FEW008 SCT035 TEMPO 2306/2309 BKN008

Aktuella väderrapporter och prognoser från 4000 flygplatser (METAR- och TAF-rapporter).

De tillgängliga stationerna syns som gula och röda prickar på kartan.

För musen över prickarna för att se namnen på stationerna.

Klicka sedan för att få väderrapporter och prognoser.

För att ändra kartan: Klicka på de gröna knapparna med ett svart kors på för att zooma in; den gröna knappen med ett streck på för att zooma ut; eller på de gröna pilarna för angränsande kartor.


METAR-TAF: